Time;durP1;ratioP1;P1;durP2;ratioP2;P2;SDS_P1;SDS_P2;PMS_P1;PMS_P2;Temp;Humidity;BMP_temperature;BMP_pressure;BME280_temperature;BME280_humidity;BME280_pressure;Samples;Min_cycle;Max_cycle;Signal;HPM_P1;HPM_P2
2021/06/17 00:01:31;;;;;;;7.43;4.55;;;23.50;64.20;;;;;;5108041;28;20502;-80
2021/06/17 00:03:57;;;;;;;7.47;4.40;;;23.40;63.90;;;;;;5099461;28;20038;-79
2021/06/17 00:06:22;;;;;;;7.43;4.47;;;23.30;63.80;;;;;;5104452;28;20016;-80
2021/06/17 00:08:48;;;;;;;8.18;4.10;;;23.30;64.10;;;;;;5109843;28;20038;-79
2021/06/17 00:11:14;;;;;;;5.93;4.50;;;23.30;64.10;;;;;;5093779;28;20034;-78
2021/06/17 00:13:40;;;;;;;4.60;4.15;;;23.30;63.90;;;;;;5107468;28;20034;-78
2021/06/17 00:16:08;;;;;;;7.30;4.50;;;23.30;64.00;;;;;;5099432;28;20074;-78
2021/06/17 00:18:34;;;;;;;4.85;4.20;;;23.20;64.10;;;;;;5082784;28;20572;-78
2021/06/17 00:21:03;;;;;;;5.47;4.38;;;23.20;64.20;;;;;;5110622;28;20483;-78
2021/06/17 00:23:33;;;;;;;7.47;4.00;;;23.20;64.10;;;;;;5080980;28;20028;-80
2021/06/17 00:25:59;;;;;;;6.70;4.55;;;23.20;64.10;;;;;;5098281;28;20541;-80
2021/06/17 00:28:25;;;;;;;5.03;4.30;;;23.10;64.20;;;;;;5101117;28;20043;-78
2021/06/17 00:30:53;;;;;;;5.03;3.97;;;23.00;64.30;;;;;;5087430;28;20051;-78
2021/06/17 00:33:19;;;;;;;8.57;4.55;;;23.00;64.30;;;;;;5106997;28;20035;-75
2021/06/17 00:35:45;;;;;;;6.03;4.13;;;23.00;64.20;;;;;;5111591;28;20016;-79
2021/06/17 00:38:11;;;;;;;5.32;4.20;;;23.00;64.00;;;;;;5103914;28;20081;-79
2021/06/17 00:40:37;;;;;;;7.07;4.10;;;23.00;64.20;;;;;;5109393;28;20027;-79
2021/06/17 00:43:04;;;;;;;7.63;4.22;;;22.90;64.30;;;;;;5083896;28;20032;-77
2021/06/17 00:45:40;;;;;;;6.93;4.10;;;22.90;64.10;;;;;;5093647;28;20036;-79
2021/06/17 00:48:06;;;;;;;4.82;3.97;;;22.90;64.20;;;;;;5106400;28;20036;-79
2021/06/17 00:50:36;;;;;;;6.10;3.90;;;22.90;64.10;;;;;;5109306;28;20028;-79
2021/06/17 00:53:02;;;;;;;6.85;4.38;;;22.80;64.00;;;;;;5108466;28;20059;-79
2021/06/17 00:55:28;;;;;;;6.20;4.35;;;22.80;64.20;;;;;;5111728;28;20025;-78
2021/06/17 00:57:54;;;;;;;5.30;3.80;;;22.80;64.20;;;;;;5111108;28;20087;-78
2021/06/17 01:00:20;;;;;;;6.18;3.75;;;22.80;64.10;;;;;;5105965;28;20051;-79
2021/06/17 01:02:46;;;;;;;6.80;4.00;;;22.70;64.20;;;;;;5100912;28;20031;-78
2021/06/17 01:05:16;;;;;;;4.75;3.70;;;22.70;64.20;;;;;;5103500;28;20028;-79
2021/06/17 01:08:04;;;;;;;6.40;4.00;;;22.70;64.20;;;;;;5092442;28;20035;-78
2021/06/17 01:11:05;;;;;;;8.15;3.95;;;22.70;64.20;;;;;;5084731;28;20020;-77
2021/06/17 01:13:55;;;;;;;6.13;3.58;;;22.70;64.20;;;;;;5104899;28;20027;-79
2021/06/17 01:16:36;;;;;;;8.77;4.20;;;22.60;64.20;;;;;;5103472;28;20085;-79
2021/06/17 01:19:26;;;;;;;6.32;3.97;;;22.60;64.20;;;;;;5107550;28;20026;-79
2021/06/17 01:21:57;;;;;;;6.95;4.07;;;22.60;64.30;;;;;;5079808;28;20056;-78
2021/06/17 01:24:37;;;;;;;6.05;3.67;;;22.50;64.30;;;;;;5103512;28;20028;-79
2021/06/17 01:27:50;;;;;;;7.05;3.90;;;22.50;64.30;;;;;;5103248;28;20035;-78
2021/06/17 01:30:18;;;;;;;7.90;4.03;;;22.50;64.50;;;;;;5066960;28;20028;-78
2021/06/17 01:32:47;;;;;;;6.28;3.80;;;22.50;64.60;;;;;;5088007;28;20055;-76
2021/06/17 01:35:17;;;;;;;5.70;3.38;;;22.50;64.60;;;;;;5113262;28;20545;-79
2021/06/17 01:37:45;;;;;;;6.50;4.00;;;22.40;64.50;;;;;;5086543;28;20024;-79
2021/06/17 01:40:12;;;;;;;4.90;3.53;;;22.40;64.40;;;;;;5095020;28;20087;-78
2021/06/17 01:42:42;;;;;;;7.22;3.90;;;22.50;64.40;;;;;;5113458;28;20034;-80
2021/06/17 01:45:08;;;;;;;7.15;3.60;;;22.40;64.30;;;;;;5108745;28;20488;-80
2021/06/17 01:47:36;;;;;;;6.18;3.58;;;22.40;64.30;;;;;;5080910;28;20538;-80
2021/06/17 01:50:04;;;;;;;6.75;3.33;;;22.30;64.30;;;;;;5104509;28;20072;-79
2021/06/17 01:52:32;;;;;;;6.20;3.42;;;22.30;64.40;;;;;;5100097;28;20035;-80
2021/06/17 01:54:59;;;;;;;4.88;3.35;;;22.30;64.20;;;;;;5099389;28;20119;-80
2021/06/17 01:57:26;;;;;;;5.30;3.20;;;22.30;64.40;;;;;;5104734;28;20023;-80
2021/06/17 01:59:54;;;;;;;5.47;3.30;;;22.20;64.50;;;;;;5101772;28;20034;-80
2021/06/17 02:02:20;;;;;;;8.88;3.42;;;22.20;64.60;;;;;;5090238;28;20039;-79
2021/06/17 02:04:50;;;;;;;7.15;3.65;;;22.10;64.50;;;;;;5122801;28;20050;-79
2021/06/17 02:07:18;;;;;;;4.32;3.53;;;22.10;64.60;;;;;;5088778;28;20054;-79
2021/06/17 02:09:47;;;;;;;5.45;3.75;;;22.10;64.40;;;;;;5097234;28;20069;-78
2021/06/17 02:12:13;;;;;;;8.65;3.67;;;22.10;64.60;;;;;;5105990;28;20049;-79
2021/06/17 02:14:40;;;;;;;6.45;3.70;;;22.10;64.60;;;;;;5089463;28;20028;-77
2021/06/17 02:17:07;;;;;;;5.90;3.58;;;22.10;64.60;;;;;;5108077;28;20028;-79
2021/06/17 02:19:36;;;;;;;6.53;3.58;;;22.10;64.70;;;;;;5112693;28;20019;-77
2021/06/17 02:22:04;;;;;;;6.65;3.42;;;22.10;64.60;;;;;;5089692;28;20596;-77
2021/06/17 02:24:33;;;;;;;5.97;3.35;;;22.00;64.90;;;;;;5090346;28;20747;-77
2021/06/17 02:27:12;;;;;;;6.93;3.35;;;22.00;64.50;;;;;;5114367;28;20032;-79
2021/06/17 02:29:48;;;;;;;5.00;3.33;;;22.00;64.70;;;;;;5109677;28;20027;-79
2021/06/17 02:32:23;;;;;;;7.10;3.67;;;22.00;65.00;;;;;;5109734;28;20016;-79
2021/06/17 02:34:50;;;;;;;5.38;3.60;;;22.00;64.90;;;;;;5109190;28;20386;-79
2021/06/17 02:37:18;;;;;;;5.03;3.42;;;21.90;65.10;;;;;;5114932;28;20056;-78
2021/06/17 02:39:47;;;;;;;3.65;3.28;;;21.90;65.10;;;;;;5107265;28;20032;-78
2021/06/17 02:42:17;;;;;;;4.85;3.15;;;21.90;65.20;;;;;;5104591;28;20105;-78
2021/06/17 02:44:46;;;;;;;5.18;3.20;;;21.90;65.30;;;;;;5108472;28;20028;-80
2021/06/17 02:47:12;;;;;;;5.75;3.45;;;21.90;65.20;;;;;;5088128;28;20447;-78
2021/06/17 02:49:39;;;;;;;5.93;3.38;;;21.90;65.20;;;;;;5108942;28;20024;-77
2021/06/17 02:52:05;;;;;;;5.20;3.13;;;21.80;65.10;;;;;;5087187;28;20498;-78
2021/06/17 02:54:31;;;;;;;6.53;3.67;;;21.80;65.30;;;;;;5108407;28;20023;-78
2021/06/17 02:57:07;;;;;;;6.00;3.50;;;21.70;65.20;;;;;;5113125;28;20405;-80
2021/06/17 03:00:02;;;;;;;6.65;3.63;;;21.70;65.30;;;;;;5106254;28;20043;-77
2021/06/17 03:02:39;;;;;;;7.20;4.05;;;21.70;65.40;;;;;;5115046;28;20031;-79
2021/06/17 03:05:15;;;;;;;5.65;3.50;;;21.70;65.40;;;;;;5097337;28;20028;-79
2021/06/17 03:08:02;;;;;;;6.00;3.88;;;21.70;65.40;;;;;;5105277;28;20447;-79
2021/06/17 03:10:29;;;;;;;5.03;3.33;;;21.60;65.50;;;;;;5106706;28;20421;-80
2021/06/17 03:12:59;;;;;;;7.25;3.63;;;21.60;65.60;;;;;;5109248;28;20068;-78
2021/06/17 03:15:33;;;;;;;7.65;3.90;;;21.60;65.50;;;;;;5109139;28;20027;-80
2021/06/17 03:18:02;;;;;;;7.18;3.10;;;21.60;65.50;;;;;;5098196;28;20036;-80
2021/06/17 03:20:32;;;;;;;7.60;3.72;;;21.60;65.60;;;;;;5092013;28;20355;-79
2021/06/17 03:23:02;;;;;;;5.88;3.80;;;21.60;65.60;;;;;;5086147;28;20333;-79
2021/06/17 03:25:28;;;;;;;5.47;3.55;;;21.60;65.70;;;;;;5094678;28;20047;-79
2021/06/17 03:27:56;;;;;;;4.82;3.50;;;21.60;65.70;;;;;;5088586;28;20034;-79
2021/06/17 03:30:26;;;;;;;4.28;3.42;;;21.60;65.70;;;;;;5077795;28;20491;-77
2021/06/17 03:32:52;;;;;;;4.53;3.70;;;21.60;65.90;;;;;;5111341;28;20095;-77
2021/06/17 03:35:20;;;;;;;6.13;3.58;;;21.70;65.90;;;;;;5087888;28;20181;-79
2021/06/17 03:37:51;;;;;;;7.43;3.80;;;21.60;65.60;;;;;;5106733;28;20371;-79
2021/06/17 03:40:18;;;;;;;5.90;3.70;;;21.70;65.50;;;;;;5107679;28;20060;-78
2021/06/17 03:42:47;;;;;;;3.92;3.22;;;21.70;65.80;;;;;;5083683;28;20028;-78
2021/06/17 03:45:15;;;;;;;7.72;3.08;;;21.70;65.90;;;;;;5087163;28;20080;-79
2021/06/17 03:47:44;;;;;;;7.55;3.50;;;21.60;65.70;;;;;;5105728;28;20051;-78
2021/06/17 03:50:17;;;;;;;5.43;3.20;;;21.60;65.80;;;;;;5105653;28;20110;-78
2021/06/17 03:52:47;;;;;;;5.28;3.42;;;21.60;65.80;;;;;;5110242;28;20031;-79
2021/06/17 03:55:15;;;;;;;5.22;3.08;;;21.60;65.90;;;;;;5087141;28;20376;-79
2021/06/17 03:57:43;;;;;;;4.13;3.30;;;21.60;66.00;;;;;;5104668;28;20330;-79
2021/06/17 04:00:10;;;;;;;6.88;3.55;;;21.60;65.80;;;;;;5108015;28;20469;-77
2021/06/17 04:02:37;;;;;;;5.85;3.30;;;21.70;65.80;;;;;;5105079;28;20032;-79
2021/06/17 04:05:03;;;;;;;4.57;3.40;;;21.70;65.90;;;;;;5104227;28;20077;-78
2021/06/17 04:07:31;;;;;;;6.05;3.25;;;21.60;65.80;;;;;;5109949;28;20223;-76
2021/06/17 04:09:59;;;;;;;8.70;3.78;;;21.60;65.40;;;;;;5089987;28;20042;-80
2021/06/17 04:12:29;;;;;;;5.28;3.47;;;21.60;65.70;;;;;;5105643;28;20023;-79
2021/06/17 04:15:00;;;;;;;5.57;3.33;;;21.60;65.60;;;;;;5087621;28;20409;-79
2021/06/17 04:17:29;;;;;;;6.53;3.70;;;21.60;65.40;;;;;;5101767;28;20043;-79
2021/06/17 04:19:59;;;;;;;4.45;2.92;;;21.60;65.50;;;;;;5088201;28;20028;-77
2021/06/17 04:22:26;;;;;;;6.82;4.13;;;21.60;65.60;;;;;;5103255;28;20034;-79
2021/06/17 04:24:57;;;;;;;3.97;3.15;;;21.60;65.60;;;;;;5089324;28;20028;-78
2021/06/17 04:27:29;;;;;;;8.38;3.63;;;21.60;65.70;;;;;;5105819;28;20028;-78
2021/06/17 04:29:56;;;;;;;4.05;3.22;;;21.60;65.50;;;;;;5089864;28;20015;-77
2021/06/17 04:32:23;;;;;;;5.53;3.13;;;21.60;65.50;;;;;;5084692;28;20028;-79
2021/06/17 04:34:56;;;;;;;3.50;2.85;;;21.60;65.70;;;;;;5107463;28;20031;-77
2021/06/17 04:37:25;;;;;;;7.20;3.50;;;21.60;66.00;;;;;;5098755;28;20099;-78
2021/06/17 04:39:55;;;;;;;6.32;3.30;;;21.70;66.10;;;;;;5101381;28;20024;-77
2021/06/17 04:42:24;;;;;;;7.47;3.38;;;21.80;65.30;;;;;;5100235;28;20036;-79
2021/06/17 04:44:52;;;;;;;7.13;3.38;;;21.80;65.40;;;;;;5100105;28;20039;-78
2021/06/17 04:47:19;;;;;;;5.22;3.67;;;21.80;65.50;;;;;;5066439;28;20024;-78
2021/06/17 04:49:47;;;;;;;5.82;3.40;;;21.80;65.10;;;;;;5100971;28;20095;-77
2021/06/17 04:52:20;;;;;;;8.15;3.33;;;21.70;65.90;;;;;;5100683;28;20027;-75
2021/06/17 04:54:46;;;;;;;9.65;3.60;;;21.70;65.30;;;;;;5104028;28;20042;-75
2021/06/17 04:57:12;;;;;;;7.40;4.10;;;21.70;65.40;;;;;;5082116;28;20031;-75
2021/06/17 04:59:37;;;;;;;6.22;3.35;;;21.70;65.80;;;;;;5105311;28;20039;-80
2021/06/17 05:02:03;;;;;;;7.25;4.30;;;21.80;65.50;;;;;;5098833;28;20071;-79
2021/06/17 05:04:29;;;;;;;6.45;4.18;;;21.80;65.80;;;;;;5086344;28;20032;-78
2021/06/17 05:12:29;;;;;;;8.23;3.83;;;21.80;65.60;;;;;;5097472;28;20076;-69
2021/06/17 05:14:54;;;;;;;9.40;3.72;;;21.90;65.60;;;;;;5077303;28;20024;-69
2021/06/17 05:17:20;;;;;;;5.65;3.67;;;21.80;65.60;;;;;;5098037;28;20034;-70
2021/06/17 05:19:46;;;;;;;7.57;3.53;;;21.90;65.80;;;;;;5094305;28;20059;-71
2021/06/17 05:22:12;;;;;;;10.07;4.90;;;21.90;66.00;;;;;;5078908;28;20048;-70
2021/06/17 05:24:38;;;;;;;7.10;4.22;;;21.90;66.00;;;;;;5099114;28;20035;-69
2021/06/17 05:27:08;;;;;;;6.35;3.55;;;22.00;66.20;;;;;;5098451;28;20108;-71
2021/06/17 05:29:34;;;;;;;8.88;4.13;;;22.00;66.10;;;;;;5098578;28;20024;-71
2021/06/17 05:32:00;;;;;;;6.50;4.95;;;22.00;66.10;;;;;;5103568;28;20025;-79
2021/06/17 05:34:25;;;;;;;8.18;4.43;;;22.10;66.00;;;;;;5104034;28;20024;-78
2021/06/17 05:36:51;;;;;;;10.02;4.53;;;22.10;65.90;;;;;;5101065;28;20035;-78
2021/06/17 05:39:17;;;;;;;12.15;5.72;;;22.10;66.20;;;;;;5090526;28;20019;-77
2021/06/17 05:41:43;;;;;;;12.57;5.78;;;22.20;66.10;;;;;;5093645;28;20024;-78
2021/06/17 05:44:09;;;;;;;10.38;4.55;;;22.10;65.90;;;;;;5102335;28;20504;-79
2021/06/17 05:46:39;;;;;;;9.52;4.68;;;22.20;66.30;;;;;;5107485;28;20024;-81
2021/06/17 05:49:05;;;;;;;13.65;4.75;;;22.20;66.20;;;;;;5088150;28;20032;-78
2021/06/17 05:51:31;;;;;;;12.65;5.20;;;22.20;66.40;;;;;;5092516;28;20038;-79
2021/06/17 05:53:57;;;;;;;8.15;4.45;;;22.20;66.30;;;;;;5093023;28;20036;-76
2021/06/17 05:56:23;;;;;;;10.63;5.25;;;22.20;66.40;;;;;;5104034;28;20035;-79
2021/06/17 05:58:49;;;;;;;8.68;4.90;;;22.30;66.40;;;;;;5082735;28;20085;-76
2021/06/17 06:01:15;;;;;;;10.35;4.95;;;22.30;66.50;;;;;;5083458;28;20024;-77
2021/06/17 06:03:41;;;;;;;10.88;4.75;;;22.40;66.60;;;;;;5083457;28;20028;-77
2021/06/17 06:06:09;;;;;;;7.63;5.03;;;22.40;67.00;;;;;;5079008;28;20060;-79
2021/06/17 06:08:35;;;;;;;11.02;5.57;;;22.40;66.90;;;;;;5100428;28;20034;-80
2021/06/17 06:11:01;;;;;;;9.40;5.28;;;22.40;66.80;;;;;;5087437;28;20020;-79
2021/06/17 06:13:26;;;;;;;8.80;5.22;;;22.40;67.00;;;;;;5112374;28;20077;-76
2021/06/17 06:15:52;;;;;;;8.68;5.18;;;22.50;67.30;;;;;;5081309;28;20055;-77
2021/06/17 06:18:18;;;;;;;9.82;5.40;;;22.50;67.20;;;;;;5101608;28;20032;-79
2021/06/17 06:20:46;;;;;;;8.40;5.47;;;22.50;67.30;;;;;;5101230;28;20582;-76
2021/06/17 06:23:12;;;;;;;10.55;5.47;;;22.60;67.10;;;;;;5099518;28;20040;-80
2021/06/17 06:25:43;;;;;;;8.82;5.43;;;22.60;67.40;;;;;;5082795;28;20115;-71
2021/06/17 06:28:09;;;;;;;;;;;22.60;67.70;;;;;;5091447;28;20040;-71
2021/06/17 06:30:35;;;;;;;9.18;4.85;;;22.70;67.50;;;;;;5083302;28;19916;-71
2021/06/17 06:33:01;;;;;;;9.95;5.20;;;22.80;67.10;;;;;;5101566;28;20495;-70
2021/06/17 06:35:26;;;;;;;10.43;5.20;;;22.80;67.20;;;;;;5103096;28;20133;-70
2021/06/17 06:37:52;;;;;;;5.40;4.60;;;22.80;67.40;;;;;;5084517;28;20035;-70
2021/06/17 06:40:21;;;;;;;10.23;5.32;;;22.90;67.40;;;;;;5098192;28;20031;-71
2021/06/17 06:42:50;;;;;;;9.75;5.55;;;22.90;67.80;;;;;;5097741;28;20032;-71
2021/06/17 06:45:16;;;;;;;10.00;5.57;;;23.00;67.90;;;;;;5099280;28;20106;-71
2021/06/17 06:47:42;;;;;;;12.90;5.63;;;23.00;68.00;;;;;;5097447;28;20111;-71
2021/06/17 06:50:09;;;;;;;8.55;5.53;;;23.00;67.80;;;;;;5097234;28;20039;-71
2021/06/17 06:52:35;;;;;;;9.38;5.82;;;23.10;67.80;;;;;;5098724;28;20032;-71
2021/06/17 06:55:01;;;;;;;9.20;5.30;;;23.20;67.90;;;;;;5100428;28;20102;-71
2021/06/17 06:57:27;;;;;;;11.77;5.35;;;23.20;67.80;;;;;;5099426;28;20661;-71
2021/06/17 06:59:54;;;;;;;9.13;5.43;;;23.20;68.20;;;;;;5098304;28;20035;-71
2021/06/17 07:02:20;;;;;;;7.30;5.80;;;23.30;67.70;;;;;;5100878;28;20020;-76
2021/06/17 07:04:46;;;;;;;10.65;5.68;;;23.30;67.90;;;;;;5104038;28;20042;-77
2021/06/17 07:07:11;;;;;;;6.53;5.40;;;23.40;68.20;;;;;;5099943;28;20112;-73
2021/06/17 07:09:38;;;;;;;6.10;5.50;;;23.50;68.10;;;;;;5105785;28;20020;-76
2021/06/17 07:12:04;;;;;;;9.50;5.57;;;23.50;67.90;;;;;;5103113;28;20044;-77
2021/06/17 07:14:31;;;;;;;8.60;6.20;;;23.50;68.30;;;;;;5083496;28;20103;-75
2021/06/17 07:16:56;;;;;;;11.45;6.18;;;23.60;68.20;;;;;;5102234;28;20080;-78
2021/06/17 07:19:22;;;;;;;10.98;6.30;;;23.60;68.10;;;;;;5102946;28;20024;-78
2021/06/17 07:21:48;;;;;;;12.02;6.45;;;23.70;68.20;;;;;;5105090;28;20506;-79
2021/06/17 07:24:14;;;;;;;10.15;6.07;;;23.70;67.90;;;;;;5087629;28;20064;-78
2021/06/17 07:26:40;;;;;;;8.35;6.13;;;23.80;68.10;;;;;;5100525;28;20019;-76
2021/06/17 07:29:06;;;;;;;12.35;5.43;;;23.90;68.00;;;;;;5106864;28;20032;-79
2021/06/17 07:31:33;;;;;;;10.93;6.15;;;23.90;67.70;;;;;;5085120;28;20024;-77
2021/06/17 07:33:59;;;;;;;10.48;5.55;;;23.90;67.10;;;;;;5084237;28;20434;-77
2021/06/17 07:36:25;;;;;;;8.13;5.85;;;23.90;67.20;;;;;;5104086;28;20104;-78
2021/06/17 07:38:51;;;;;;;9.88;5.80;;;24.00;67.50;;;;;;5085454;28;20074;-76
2021/06/17 07:41:16;;;;;;;13.25;5.63;;;24.10;67.60;;;;;;5103797;28;20036;-78
2021/06/17 07:43:42;;;;;;;9.77;5.65;;;24.10;67.20;;;;;;5103459;28;20028;-78
2021/06/17 07:46:08;;;;;;;9.05;5.88;;;24.10;67.20;;;;;;5087800;28;20047;-80
2021/06/17 07:48:35;;;;;;;8.73;5.75;;;24.20;67.30;;;;;;5105126;28;20024;-78
2021/06/17 07:51:01;;;;;;;9.23;5.95;;;24.30;67.70;;;;;;5101704;28;20047;-77
2021/06/17 07:53:27;;;;;;;10.73;6.85;;;24.30;67.90;;;;;;5110644;28;20043;-80
2021/06/17 07:55:52;;;;;;;8.10;5.68;;;24.40;67.50;;;;;;5085920;28;20020;-78
2021/06/17 07:58:18;;;;;;;9.13;6.13;;;24.40;67.80;;;;;;5105202;28;20055;-76
2021/06/17 08:00:44;;;;;;;9.82;6.25;;;24.60;67.40;;;;;;5102560;28;20122;-77
2021/06/17 08:03:09;;;;;;;7.47;5.90;;;24.60;67.20;;;;;;5100582;28;20592;-76
2021/06/17 08:05:35;;;;;;;14.32;6.55;;;24.70;67.40;;;;;;5104780;28;20522;-77
2021/06/17 08:08:01;;;;;;;9.95;5.70;;;24.70;66.90;;;;;;5088163;28;20024;-78
2021/06/17 08:10:27;;;;;;;12.55;6.88;;;24.70;67.00;;;;;;5106937;28;20108;-78
2021/06/17 08:12:53;;;;;;;9.98;6.60;;;24.70;66.90;;;;;;5101871;28;20442;-78
2021/06/17 08:15:19;;;;;;;12.98;6.05;;;24.80;67.10;;;;;;5090803;28;20020;-77
2021/06/17 08:17:48;;;;;;;8.55;5.95;;;24.90;66.90;;;;;;5102901;28;20020;-77
2021/06/17 08:20:14;;;;;;;10.60;7.10;;;24.90;67.00;;;;;;5101561;28;20093;-75
2021/06/17 08:22:42;;;;;;;9.00;5.75;;;25.00;66.80;;;;;;5088934;28;20023;-76
2021/06/17 08:25:12;;;;;;;12.85;6.40;;;25.10;67.30;;;;;;5103518;28;20478;-77
2021/06/17 08:27:38;;;;;;;9.93;6.60;;;25.10;67.30;;;;;;5107424;28;20052;-77
2021/06/17 08:30:06;;;;;;;13.07;6.15;;;25.10;67.10;;;;;;5106456;28;20038;-76
2021/06/17 08:32:32;;;;;;;10.90;6.80;;;25.20;67.20;;;;;;5101763;28;20024;-78
2021/06/17 08:34:57;;;;;;;11.60;7.15;;;25.30;66.90;;;;;;5099953;28;20051;-78
2021/06/17 08:37:23;;;;;;;16.38;6.78;;;25.40;67.00;;;;;;5097269;28;20080;-77
2021/06/17 08:39:53;;;;;;;12.20;6.60;;;25.40;66.70;;;;;;5109013;28;20066;-78
2021/06/17 08:42:19;;;;;;;9.10;6.25;;;25.50;66.60;;;;;;5071794;28;20020;-79
2021/06/17 08:44:45;;;;;;;12.85;7.40;;;25.50;66.30;;;;;;5100228;28;20420;-76
2021/06/17 08:47:11;;;;;;;13.70;7.25;;;25.60;66.60;;;;;;5102456;28;20059;-76
2021/06/17 08:49:37;;;;;;;10.23;6.70;;;25.70;66.30;;;;;;5103752;28;20030;-79
2021/06/17 08:52:03;;;;;;;12.85;6.43;;;25.70;66.70;;;;;;5081760;28;20032;-79
2021/06/17 08:54:29;;;;;;;13.13;6.70;;;25.80;66.60;;;;;;5104720;28;20043;-76
2021/06/17 08:56:55;;;;;;;9.88;6.78;;;25.90;66.60;;;;;;5095860;28;20052;-77
2021/06/17 08:59:38;;;;;;;8.65;6.82;;;25.90;66.40;;;;;;5102965;28;20099;-78
2021/06/17 09:02:04;;;;;;;11.75;8.30;;;26.00;66.30;;;;;;5095836;28;20024;-78
2021/06/17 09:04:31;;;;;;;10.23;6.80;;;26.00;66.40;;;;;;5082636;28;20031;-78
2021/06/17 09:07:06;;;;;;;12.90;7.35;;;26.10;66.40;;;;;;5095477;28;20111;-79
2021/06/17 09:09:50;;;;;;;8.50;7.30;;;26.10;66.30;;;;;;5092504;28;20032;-76
2021/06/17 09:12:19;;;;;;;9.25;6.50;;;26.20;66.50;;;;;;5101417;28;20314;-78
2021/06/17 09:14:55;;;;;;;10.45;7.13;;;26.30;66.20;;;;;;5101005;28;20020;-79
2021/06/17 09:17:21;;;;;;;10.20;6.57;;;26.40;66.30;;;;;;5099274;28;20024;-79
2021/06/17 09:19:50;;;;;;;10.35;6.68;;;26.50;66.00;;;;;;5099377;28;20024;-79
2021/06/17 09:22:18;;;;;;;9.77;7.20;;;26.60;65.40;;;;;;5096868;28;20052;-78
2021/06/17 09:24:47;;;;;;;15.95;7.30;;;26.70;64.90;;;;;;5105742;28;20039;-77
2021/06/17 09:27:25;;;;;;;9.57;6.80;;;26.80;65.20;;;;;;5102794;28;20028;-77
2021/06/17 09:29:54;;;;;;;9.85;6.50;;;26.90;65.30;;;;;;5100107;28;20095;-77
2021/06/17 09:32:26;;;;;;;9.77;7.25;;;27.00;65.90;;;;;;5100258;28;20613;-79
2021/06/17 09:34:53;;;;;;;8.82;6.40;;;27.00;64.30;;;;;;5092707;28;20032;-79
2021/06/17 09:37:30;;;;;;;8.32;6.57;;;27.10;64.40;;;;;;5106417;28;20043;-78
2021/06/17 09:39:57;;;;;;;12.00;6.53;;;27.10;64.80;;;;;;5078784;28;20050;-78
2021/06/17 09:42:31;;;;;;;8.75;6.75;;;27.10;65.10;;;;;;5100260;28;20396;-77
2021/06/17 09:44:59;;;;;;;11.50;7.75;;;27.20;64.90;;;;;;5099299;28;20035;-78
2021/06/17 09:47:25;;;;;;;11.05;6.82;;;27.20;64.30;;;;;;5080342;28;20390;-78
2021/06/17 09:49:52;;;;;;;10.73;7.53;;;27.30;64.90;;;;;;5093031;28;20086;-76
2021/06/17 09:52:19;;;;;;;10.40;6.88;;;27.30;65.00;;;;;;5098307;28;20028;-77
2021/06/17 09:54:46;;;;;;;10.27;6.70;;;27.40;64.30;;;;;;5100239;28;20117;-79
2021/06/17 09:57:20;;;;;;;9.95;7.18;;;27.40;65.20;;;;;;5082157;28;20497;-79
2021/06/17 09:59:49;;;;;;;9.40;7.28;;;27.50;64.30;;;;;;5097551;28;20508;-77
2021/06/17 10:02:34;;;;;;;11.73;7.90;;;27.50;64.10;;;;;;5097708;28;20031;-75
2021/06/17 10:05:15;;;;;;;8.52;6.82;;;27.60;63.70;;;;;;5096038;28;20028;-78
2021/06/17 10:07:43;;;;;;;11.23;7.00;;;27.60;64.10;;;;;;5089521;28;20028;-78
2021/06/17 10:10:11;;;;;;;8.52;6.75;;;27.70;64.10;;;;;;5094274;28;20025;-79
2021/06/17 10:12:38;;;;;;;9.57;6.95;;;27.80;63.20;;;;;;5084440;28;20474;-79
2021/06/17 10:15:05;;;;;;;9.15;6.65;;;27.90;63.30;;;;;;5093708;28;20089;-79
2021/06/17 10:17:31;;;;;;;10.07;6.93;;;28.00;63.10;;;;;;5096026;28;20047;-79
2021/06/17 10:19:58;;;;;;;9.98;7.50;;;28.00;63.30;;;;;;5095066;28;20378;-78
2021/06/17 10:22:25;;;;;;;11.18;8.00;;;28.10;63.70;;;;;;5095036;28;20076;-77
2021/06/17 10:24:52;;;;;;;10.55;7.13;;;28.10;63.20;;;;;;5110920;28;20046;-79
2021/06/17 10:27:36;;;;;;;8.55;7.15;;;28.10;63.20;;;;;;5093332;28;20085;-75
2021/06/17 10:30:05;;;;;;;8.75;6.68;;;28.20;63.40;;;;;;5097212;28;20481;-77
2021/06/17 10:32:40;;;;;;;10.90;7.68;;;28.30;62.70;;;;;;5092785;28;20035;-74
2021/06/17 10:35:07;;;;;;;9.48;7.13;;;28.30;62.50;;;;;;5077120;28;20189;-74
2021/06/17 10:37:54;;;;;;;9.85;7.18;;;28.30;61.80;;;;;;5067089;28;20093;-75
2021/06/17 10:40:24;;;;;;;8.48;7.18;;;28.40;61.60;;;;;;5083172;28;20317;-77
2021/06/17 10:42:52;;;;;;;11.90;7.47;;;28.40;61.30;;;;;;5101882;28;20036;-76
2021/06/17 10:45:43;;;;;;;10.05;6.55;;;28.50;61.80;;;;;;5096750;28;20041;-76
2021/06/17 10:48:11;;;;;;;;;;;28.50;61.20;;;;;;5097868;28;20036;-75
2021/06/17 10:50:40;;;;;;;10.02;7.63;;;28.50;61.50;;;;;;5096302;28;20010;-74
2021/06/17 10:53:22;;;;;;;6.90;6.30;;;28.60;61.00;;;;;;5090253;28;20052;-77
2021/06/17 10:56:01;;;;;;;9.80;6.90;;;28.60;60.40;;;;;;5098757;28;20028;-76
2021/06/17 10:58:42;;;;;;;10.15;7.32;;;28.70;59.60;;;;;;5099850;28;20119;-75
2021/06/17 11:01:41;;;;;;;7.97;7.13;;;28.80;60.00;;;;;;5097527;28;20035;-75
2021/06/17 11:04:17;;;;;;;9.45;7.78;;;28.90;59.10;;;;;;5094380;28;20036;-75
2021/06/17 11:06:52;;;;;;;8.15;7.35;;;28.90;59.90;;;;;;5080699;28;20028;-74
2021/06/17 11:09:32;;;;;;;9.35;7.30;;;29.00;59.30;;;;;;5103716;28;20028;-74
2021/06/17 11:11:59;;;;;;;12.80;7.15;;;29.00;59.50;;;;;;5099567;28;20386;-75
2021/06/17 11:14:25;;;;;;;8.15;6.63;;;29.10;60.50;;;;;;5103601;28;20029;-75
2021/06/17 11:16:55;;;;;;;19.80;12.82;;;29.10;58.90;;;;;;5100038;28;20032;-75
2021/06/17 11:19:22;;;;;;;13.55;8.18;;;29.20;58.70;;;;;;5101319;28;20024;-75
2021/06/17 11:21:49;;;;;;;8.23;7.32;;;29.30;58.50;;;;;;5093225;28;20059;-75
2021/06/17 11:24:23;;;;;;;9.82;7.03;;;29.40;57.70;;;;;;5092388;28;20031;-76
2021/06/17 11:26:51;;;;;;;10.57;6.78;;;29.60;57.70;;;;;;5095799;28;20016;-75
2021/06/17 11:29:19;;;;;;;8.68;6.95;;;29.60;56.50;;;;;;5101380;28;20031;-75
2021/06/17 11:31:53;;;;;;;11.23;6.97;;;29.60;56.60;;;;;;5101721;28;20047;-76
2021/06/17 11:34:38;;;;;;;10.07;6.90;;;29.70;56.20;;;;;;5078030;28;20020;-75
2021/06/17 11:37:14;;;;;;;8.90;6.72;;;29.80;55.30;;;;;;5090739;28;20596;-75
2021/06/17 11:39:40;;;;;;;8.43;6.55;;;29.90;55.80;;;;;;5093102;28;20024;-75
2021/06/17 11:42:12;;;;;;;9.55;6.68;;;30.00;54.60;;;;;;5090122;28;20027;-75
2021/06/17 11:44:38;;;;;;;8.32;7.28;;;30.00;54.40;;;;;;5108285;28;20023;-74
2021/06/17 11:47:08;;;;;;;7.85;6.85;;;30.10;54.20;;;;;;5081035;28;20112;-75
2021/06/17 11:49:39;;;;;;;8.48;6.65;;;30.20;53.50;;;;;;5097448;28;20106;-75
2021/06/17 11:52:14;;;;;;;7.60;6.88;;;30.20;53.10;;;;;;5100579;28;20516;-75
2021/06/17 11:54:40;;;;;;;9.38;6.78;;;30.30;52.90;;;;;;5099664;28;20043;-75
2021/06/17 11:57:07;;;;;;;9.35;6.47;;;30.40;52.50;;;;;;5103309;28;20389;-75
2021/06/17 11:59:37;;;;;;;7.93;6.15;;;30.50;52.80;;;;;;5097273;28;20019;-75
2021/06/17 12:02:16;;;;;;;;;;;30.50;51.30;;;;;;5099903;28;20035;-75
2021/06/17 12:04:43;;;;;;;7.45;6.75;;;30.50;52.10;;;;;;5096446;28;19920;-75
2021/06/17 12:07:09;;;;;;;7.68;6.45;;;30.60;51.20;;;;;;5102173;28;20041;-73
2021/06/17 12:09:36;;;;;;;6.78;6.18;;;30.60;51.70;;;;;;5105248;28;20028;-74
2021/06/17 12:12:16;;;;;;;9.70;6.32;;;30.70;51.90;;;;;;5097174;28;20443;-75
2021/06/17 12:14:47;;;;;;;7.38;6.68;;;30.90;50.30;;;;;;5098664;28;20073;-74
2021/06/17 12:17:25;;;;;;;;;;;31.00;49.60;;;;;;5094125;28;20103;-74
2021/06/17 12:20:02;;;;;;;7.55;6.30;;;30.90;49.60;;;;;;5094894;28;19919;-75
2021/06/17 12:22:28;;;;;;;9.20;6.10;;;31.00;51.20;;;;;;5078309;28;20109;-75
2021/06/17 12:24:55;;;;;;;6.60;5.97;;;31.10;48.10;;;;;;5093855;28;20036;-74
2021/06/17 12:27:21;;;;;;;6.35;5.78;;;31.10;47.30;;;;;;5095427;28;20060;-75
2021/06/17 12:29:47;;;;;;;6.32;5.72;;;31.20;47.30;;;;;;5082996;28;20094;-74
2021/06/17 12:32:13;;;;;;;8.15;6.15;;;31.20;47.90;;;;;;5091967;28;20107;-75
2021/06/17 12:34:44;;;;;;;8.60;5.60;;;31.20;47.70;;;;;;5082641;28;20139;-73
2021/06/17 12:37:11;;;;;;;6.22;5.50;;;31.30;46.60;;;;;;5092396;28;20024;-74
2021/06/17 12:39:39;;;;;;;6.82;6.07;;;31.40;46.80;;;;;;5077472;28;20107;-74
2021/06/17 12:42:14;;;;;;;6.40;5.80;;;31.40;46.80;;;;;;5096097;28;20028;-74
2021/06/17 12:44:41;;;;;;;7.40;5.97;;;31.40;47.30;;;;;;5102268;28;20501;-75
2021/06/17 12:47:25;;;;;;;8.65;5.25;;;31.50;46.50;;;;;;5090874;28;20031;-75
2021/06/17 12:52:37;;;;;;;8.63;6.30;;;31.60;46.30;;;;;;5097597;28;20024;-75
2021/06/17 12:55:04;;;;;;;11.20;5.90;;;31.60;46.20;;;;;;5081211;28;20504;-75
2021/06/17 12:57:30;;;;;;;7.18;5.50;;;31.70;46.10;;;;;;5104347;28;20057;-75
2021/06/17 12:59:59;;;;;;;7.38;5.60;;;31.70;45.30;;;;;;5098921;28;20107;-75
2021/06/17 13:02:27;;;;;;;5.40;4.90;;;31.80;45.20;;;;;;5095611;28;20039;-75
2021/06/17 13:05:06;;;;;;;5.82;4.93;;;31.90;43.50;;;;;;5096370;28;20056;-75